createdAt,value
2019-05-23T00:01:01.547Z,9.50
2019-05-23T00:03:38.793Z,9.50
2019-05-23T00:06:11.387Z,9.50
2019-05-23T00:08:41.487Z,9.50
2019-05-23T00:11:32.132Z,9.60
2019-05-23T00:14:06.909Z,9.60
2019-05-23T00:16:38.766Z,9.60
2019-05-23T00:19:07.804Z,9.60
2019-05-23T00:21:37.154Z,9.60
2019-05-23T00:24:06.410Z,9.60
2019-05-23T00:26:36.117Z,9.50
2019-05-23T00:29:09.839Z,9.50
2019-05-23T00:31:50.006Z,9.40
2019-05-23T00:34:18.891Z,9.40
2019-05-23T00:36:50.039Z,9.40
2019-05-23T00:39:19.662Z,9.40
2019-05-23T00:41:49.306Z,9.40
2019-05-23T00:44:18.971Z,9.30
2019-05-23T00:46:48.772Z,9.30
2019-05-23T00:49:18.445Z,9.30
2019-05-23T00:51:47.813Z,9.30
2019-05-23T00:54:19.241Z,9.20
2019-05-23T00:56:48.177Z,9.10
2019-05-23T00:59:26.631Z,9.10
2019-05-23T01:01:49.238Z,9.00
2019-05-23T01:04:19.087Z,9.10
2019-05-23T01:06:49.194Z,9.00
2019-05-23T01:09:19.297Z,9.00
2019-05-23T01:11:48.874Z,9.00
2019-05-23T01:14:18.403Z,9.00
2019-05-23T01:16:49.445Z,9.00
2019-05-23T01:19:19.113Z,9.00
2019-05-23T01:21:59.945Z,8.90
2019-05-23T01:24:34.364Z,8.90
2019-05-23T01:27:04.528Z,8.90
2019-05-23T01:29:42.046Z,8.90
2019-05-23T01:32:30.780Z,8.90
2019-05-23T01:35:03.303Z,8.90
2019-05-23T01:37:32.146Z,9.00
2019-05-23T01:40:02.143Z,9.00
2019-05-23T01:42:31.084Z,9.00
2019-05-23T01:45:02.610Z,9.10
2019-05-23T01:47:32.302Z,9.10
2019-05-23T01:50:01.974Z,9.20
2019-05-23T01:52:31.637Z,9.10
2019-05-23T01:55:00.863Z,9.10
2019-05-23T01:57:30.187Z,9.10
2019-05-23T02:00:09.925Z,9.10
2019-05-23T02:02:32.297Z,9.10
2019-05-23T02:05:01.114Z,9.10
2019-05-23T02:07:31.186Z,9.00
2019-05-23T02:10:00.281Z,9.00
2019-05-23T02:12:31.605Z,9.00
2019-05-23T02:15:02.782Z,9.00
2019-05-23T02:17:33.544Z,9.00
2019-05-23T02:20:02.914Z,9.00
2019-05-23T02:22:32.102Z,9.00
2019-05-23T02:25:02.199Z,8.90
2019-05-23T02:27:31.445Z,8.80
2019-05-23T02:30:01.298Z,8.90
2019-05-23T02:32:30.730Z,8.90
2019-05-23T02:35:00.559Z,8.90
2019-05-23T02:37:49.158Z,8.80
2019-05-23T02:40:25.622Z,8.80
2019-05-23T02:42:58.385Z,8.80
2019-05-23T02:45:33.962Z,8.80
2019-05-23T02:48:08.390Z,8.70
2019-05-23T02:50:46.082Z,8.60
2019-05-23T02:53:16.857Z,8.60
2019-05-23T02:55:46.459Z,8.70
2019-05-23T02:58:22.046Z,8.70
2019-05-23T03:01:01.065Z,8.80
2019-05-23T03:03:32.581Z,8.70
2019-05-23T03:06:04.445Z,8.70
2019-05-23T03:08:35.156Z,8.70
2019-05-23T03:11:18.797Z,8.70
2019-05-23T03:13:49.558Z,8.70
2019-05-23T03:16:24.930Z,8.60
2019-05-23T03:18:59.696Z,8.60
2019-05-23T03:21:29.129Z,8.60
2019-05-23T03:23:58.899Z,8.60
2019-05-23T03:27:15.410Z,8.60
2019-05-23T03:29:46.451Z,8.60
2019-05-23T03:32:24.674Z,8.60
2019-05-23T03:35:00.764Z,8.60
2019-05-23T03:37:30.395Z,8.60
2019-05-23T03:39:59.415Z,8.60
2019-05-23T03:42:29.038Z,8.60
2019-05-23T03:44:57.779Z,8.60
2019-05-23T03:47:28.176Z,8.60
2019-05-23T03:49:58.813Z,8.60
2019-05-23T03:52:27.876Z,8.50
2019-05-23T03:55:01.529Z,8.50
2019-05-23T03:57:30.782Z,8.50
2019-05-23T04:00:02.016Z,8.50
2019-05-23T04:02:31.566Z,8.50
2019-05-23T04:05:00.735Z,8.50
2019-05-23T04:07:31.212Z,8.60
2019-05-23T04:10:00.049Z,8.60
2019-05-23T04:12:29.063Z,8.70
2019-05-23T04:14:59.410Z,8.80
2019-05-23T04:17:28.254Z,8.80
2019-05-23T04:19:57.189Z,8.90
2019-05-23T04:22:26.541Z,9.00
2019-05-23T04:24:55.470Z,9.10
2019-05-23T04:27:24.327Z,9.20
2019-05-23T04:29:53.437Z,9.20
2019-05-23T04:32:22.901Z,9.30
2019-05-23T04:34:52.632Z,9.40
2019-05-23T04:37:21.640Z,9.40
2019-05-23T04:39:50.672Z,9.60
2019-05-23T04:42:19.571Z,9.70
2019-05-23T04:44:48.603Z,9.70
2019-05-23T04:47:18.779Z,9.90
2019-05-23T04:49:47.704Z,10.00
2019-05-23T04:52:17.178Z,10.40
2019-05-23T04:54:47.219Z,10.90
2019-05-23T04:57:18.242Z,11.10
2019-05-23T04:59:47.969Z,11.50
2019-05-23T05:02:26.522Z,12.10
2019-05-23T05:04:48.637Z,12.60
2019-05-23T05:07:17.673Z,12.80
2019-05-23T05:09:47.604Z,12.60
2019-05-23T05:12:18.032Z,12.40
2019-05-23T05:14:46.770Z,12.40
2019-05-23T05:17:15.884Z,12.60
2019-05-23T05:19:45.217Z,12.70
2019-05-23T05:22:14.196Z,12.90
2019-05-23T05:24:42.964Z,13.10
2019-05-23T05:27:12.445Z,13.00
2019-05-23T05:29:41.179Z,12.50
2019-05-23T05:32:10.255Z,12.90
2019-05-23T05:34:39.130Z,14.10
2019-05-23T05:37:08.086Z,15.20
2019-05-23T05:39:37.230Z,16.10
2019-05-23T05:42:08.239Z,16.40
2019-05-23T05:44:38.152Z,16.40
2019-05-23T05:47:08.545Z,16.30
2019-05-23T05:49:37.491Z,16.70
2019-05-23T05:52:07.797Z,17.10
2019-05-23T05:54:37.274Z,17.50
2019-05-23T05:57:06.610Z,18.40
2019-05-23T05:59:35.350Z,18.70
2019-05-23T06:02:05.965Z,19.70
2019-05-23T06:04:35.276Z,19.40
2019-05-23T06:07:31.754Z,18.90
2019-05-23T06:10:01.003Z,19.80
2019-05-23T06:12:29.887Z,19.50
2019-05-23T06:14:58.707Z,20.60
2019-05-23T06:17:27.837Z,21.40
2019-05-23T06:19:56.728Z,21.30
2019-05-23T06:22:25.953Z,22.00
2019-05-23T06:24:57.575Z,21.40
2019-05-23T06:27:26.304Z,21.10
2019-05-23T06:29:55.442Z,21.00
2019-05-23T06:32:26.418Z,20.90
2019-05-23T06:34:56.450Z,21.10
2019-05-23T06:37:25.251Z,21.00
2019-05-23T06:39:54.008Z,21.50
2019-05-23T06:42:23.488Z,21.60
2019-05-23T06:44:52.639Z,21.70
2019-05-23T06:47:21.753Z,20.90
2019-05-23T06:49:50.677Z,20.90
2019-05-23T06:52:19.768Z,21.20
2019-05-23T06:54:48.615Z,20.90
2019-05-23T06:57:17.845Z,19.60
2019-05-23T06:59:47.371Z,19.60
2019-05-23T07:02:16.134Z,19.50
2019-05-23T07:04:44.943Z,20.10
2019-05-23T07:07:14.775Z,19.90
2019-05-23T07:09:43.529Z,20.90
2019-05-23T07:12:12.547Z,21.10
2019-05-23T07:14:41.915Z,22.00
2019-05-23T07:17:11.692Z,23.10
2019-05-23T07:19:40.511Z,22.80
2019-05-23T07:22:10.110Z,23.20
2019-05-23T07:24:55.165Z,22.50
2019-05-23T07:27:09.491Z,22.50
2019-05-23T07:29:39.315Z,23.00
2019-05-23T07:32:08.299Z,23.40
2019-05-23T07:34:37.204Z,23.30
2019-05-23T07:37:06.255Z,24.40
2019-05-23T07:39:35.122Z,24.20
2019-05-23T07:42:05.909Z,25.00
2019-05-23T07:44:47.906Z,24.90
2019-05-23T07:47:07.140Z,24.40
2019-05-23T07:49:35.889Z,22.90
2019-05-23T07:52:06.468Z,23.70
2019-05-23T07:54:41.278Z,23.80
2019-05-23T07:57:13.595Z,24.70
2019-05-23T07:59:43.175Z,23.70
2019-05-23T08:02:25.547Z,23.50
2019-05-23T08:04:52.229Z,24.00
2019-05-23T08:07:23.617Z,24.20
2019-05-23T08:09:52.405Z,24.30
2019-05-23T08:12:21.735Z,24.00
2019-05-23T08:14:50.778Z,24.50
2019-05-23T08:17:20.416Z,25.20
2019-05-23T08:19:50.522Z,25.50
2019-05-23T08:22:19.571Z,25.10
2019-05-23T08:24:51.329Z,24.90
2019-05-23T08:27:19.748Z,24.70
2019-05-23T08:29:48.768Z,25.70
2019-05-23T08:32:17.669Z,25.70
2019-05-23T08:34:46.447Z,25.50
2019-05-23T08:37:16.258Z,25.00
2019-05-23T08:39:45.930Z,26.70
2019-05-23T08:42:16.184Z,26.90
2019-05-23T08:44:46.290Z,26.00
2019-05-23T08:47:15.401Z,26.50
2019-05-23T08:49:44.683Z,26.70
2019-05-23T08:52:13.420Z,27.10
2019-05-23T08:54:43.547Z,27.10
2019-05-23T08:57:15.233Z,27.40
2019-05-23T08:59:44.751Z,26.20
2019-05-23T09:02:14.161Z,25.70
2019-05-23T09:05:02.612Z,25.70
2019-05-23T09:07:13.835Z,24.90
2019-05-23T09:09:45.986Z,25.00
2019-05-23T09:12:15.683Z,25.80
2019-05-23T09:14:44.845Z,26.00
2019-05-23T09:17:13.943Z,26.20
2019-05-23T09:19:43.101Z,27.60
2019-05-23T09:22:13.312Z,28.40
2019-05-23T09:24:42.524Z,29.70
2019-05-23T09:27:11.896Z,29.20
2019-05-23T09:29:41.765Z,28.20
2019-05-23T09:32:11.159Z,27.90
2019-05-23T09:34:39.886Z,27.70
2019-05-23T09:37:09.394Z,28.40
2019-05-23T09:39:39.870Z,28.80
2019-05-23T09:42:11.982Z,28.80
2019-05-23T09:44:40.316Z,28.90
2019-05-23T09:47:09.161Z,29.20
2019-05-23T09:49:38.010Z,27.90
2019-05-23T09:52:08.348Z,28.70
2019-05-23T09:54:39.255Z,29.00
2019-05-23T09:57:09.678Z,26.90
2019-05-23T09:59:38.549Z,28.10
2019-05-23T10:02:08.357Z,28.10
2019-05-23T10:04:39.159Z,28.40
2019-05-23T10:07:07.922Z,28.40
2019-05-23T10:09:36.695Z,28.80
2019-05-23T10:12:05.743Z,28.10
2019-05-23T10:14:46.927Z,27.30
2019-05-23T10:17:16.119Z,27.60
2019-05-23T10:19:44.918Z,29.10
2019-05-23T10:22:13.937Z,30.70
2019-05-23T10:24:42.701Z,28.80
2019-05-23T10:27:13.629Z,30.40
2019-05-23T10:29:42.423Z,28.30
2019-05-23T10:32:12.766Z,27.70
2019-05-23T10:34:41.589Z,28.10
2019-05-23T10:37:12.570Z,27.90
2019-05-23T10:39:46.234Z,28.40
2019-05-23T10:42:18.238Z,28.00
2019-05-23T10:44:47.171Z,28.30
2019-05-23T10:47:16.003Z,27.70
2019-05-23T10:49:45.330Z,27.50
2019-05-23T10:52:15.825Z,28.60
2019-05-23T10:54:44.567Z,28.70
2019-05-23T10:57:13.746Z,26.10
2019-05-23T10:59:42.546Z,28.30
2019-05-23T11:02:12.720Z,28.60
2019-05-23T11:04:42.658Z,27.80
2019-05-23T11:07:12.879Z,28.60
2019-05-23T11:09:42.066Z,27.70
2019-05-23T11:12:12.220Z,28.60
2019-05-23T11:14:41.340Z,27.60
2019-05-23T11:17:10.718Z,27.50
2019-05-23T11:19:39.910Z,27.40
2019-05-23T11:22:11.040Z,29.10
2019-05-23T11:24:40.375Z,28.90
2019-05-23T11:27:09.162Z,28.60
2019-05-23T11:29:38.020Z,28.40
2019-05-23T11:32:09.466Z,28.20
2019-05-23T11:34:38.278Z,26.60
2019-05-23T11:37:07.128Z,27.90
2019-05-23T11:39:41.956Z,27.00
2019-05-23T11:42:07.934Z,27.70
2019-05-23T11:44:37.012Z,27.10
2019-05-23T11:47:09.380Z,27.50
2019-05-23T11:49:38.829Z,27.30
2019-05-23T11:52:09.419Z,27.50
2019-05-23T11:54:38.850Z,28.20
2019-05-23T11:57:08.933Z,27.30
2019-05-23T11:59:38.125Z,27.70
2019-05-23T12:02:30.929Z,27.60
2019-05-23T12:05:02.089Z,28.90
2019-05-23T12:07:31.787Z,27.30
2019-05-23T12:10:00.839Z,26.90
2019-05-23T12:12:29.721Z,27.40
2019-05-23T12:14:58.509Z,28.20
2019-05-23T12:17:30.835Z,27.40
2019-05-23T12:20:00.371Z,27.30
2019-05-23T12:22:29.434Z,25.70
2019-05-23T12:24:58.525Z,25.50
2019-05-23T12:27:27.539Z,26.50
2019-05-23T12:29:56.661Z,27.70
2019-05-23T12:32:25.427Z,27.50
2019-05-23T12:35:09.303Z,27.60
2019-05-23T12:37:24.991Z,26.80
2019-05-23T12:39:54.550Z,27.60
2019-05-23T12:42:23.618Z,27.80
2019-05-23T12:44:52.407Z,26.80
2019-05-23T12:47:44.548Z,26.60
2019-05-23T12:50:16.950Z,27.30
2019-05-23T12:52:45.701Z,26.80
2019-05-23T12:55:14.939Z,27.50
2019-05-23T12:57:43.831Z,27.20
2019-05-23T13:00:22.470Z,27.40
2019-05-23T13:02:51.915Z,26.50
2019-05-23T13:05:21.116Z,25.70
2019-05-23T13:07:49.968Z,25.70
2019-05-23T13:10:23.774Z,25.50
2019-05-23T13:12:49.586Z,25.70
2019-05-23T13:15:19.725Z,25.90
2019-05-23T13:17:48.508Z,25.80
2019-05-23T13:20:18.980Z,25.50
2019-05-23T13:22:47.741Z,25.10
2019-05-23T13:25:16.820Z,25.50
2019-05-23T13:27:45.580Z,25.70
2019-05-23T13:30:14.827Z,24.90
2019-05-23T13:32:44.253Z,25.20
2019-05-23T13:35:13.363Z,25.10
2019-05-23T13:37:53.123Z,25.90
2019-05-23T13:40:14.051Z,25.00
2019-05-23T13:42:43.485Z,24.40
2019-05-23T13:45:13.176Z,25.20
2019-05-23T13:47:42.907Z,25.20
2019-05-23T13:50:12.032Z,24.90
2019-05-23T13:52:41.323Z,24.80
2019-05-23T13:55:10.502Z,24.90
2019-05-23T13:57:39.223Z,24.80
2019-05-23T14:00:09.253Z,25.00
2019-05-23T14:02:38.180Z,24.40
2019-05-23T14:05:07.592Z,24.40
2019-05-23T14:07:36.615Z,24.50
2019-05-23T14:10:06.154Z,24.80
2019-05-23T14:12:34.985Z,25.30
2019-05-23T14:15:04.103Z,24.30
2019-05-23T14:17:37.083Z,24.30
2019-05-23T14:20:06.553Z,24.40
2019-05-23T14:22:34.712Z,24.30
2019-05-23T14:25:04.075Z,24.90
2019-05-23T14:27:39.513Z,25.10
2019-05-23T14:30:17.152Z,24.90
2019-05-23T14:32:53.984Z,24.70
2019-05-23T14:35:28.118Z,24.90
2019-05-23T14:37:59.200Z,24.10
2019-05-23T14:40:28.259Z,23.60
2019-05-23T14:45:57.854Z,24.30
2019-05-23T14:48:40.734Z,24.00
2019-05-23T14:51:27.215Z,24.00
2019-05-23T14:54:01.102Z,23.90
2019-05-23T14:56:32.652Z,23.50
2019-05-23T14:59:01.469Z,23.70
2019-05-23T15:01:31.917Z,24.10
2019-05-23T15:04:00.911Z,23.50
2019-05-23T15:06:29.988Z,24.10
2019-05-23T15:08:58.781Z,24.00
2019-05-23T15:11:28.129Z,24.00
2019-05-23T15:13:57.139Z,23.60
2019-05-23T15:16:26.368Z,23.60
2019-05-23T15:18:55.247Z,23.60
2019-05-23T15:21:24.347Z,23.60
2019-05-23T15:23:53.323Z,24.20
2019-05-23T15:26:23.720Z,23.80
2019-05-23T15:28:52.945Z,23.60
2019-05-23T15:31:22.876Z,24.10
2019-05-23T15:33:54.041Z,24.00
2019-05-23T15:36:23.234Z,23.80
2019-05-23T15:39:08.072Z,23.20
2019-05-23T15:41:22.614Z,23.20
2019-05-23T15:43:51.515Z,23.60
2019-05-23T15:46:20.379Z,23.90
2019-05-23T15:48:49.306Z,23.60
2019-05-23T15:51:22.990Z,23.90
2019-05-23T15:54:03.579Z,23.90
2019-05-23T15:56:52.955Z,23.50
2019-05-23T15:59:32.200Z,23.60
2019-05-23T16:02:13.895Z,23.40
2019-05-23T16:04:43.291Z,23.50
2019-05-23T16:07:13.252Z,23.30
2019-05-23T16:09:42.354Z,23.40
2019-05-23T16:12:13.017Z,23.00
2019-05-23T16:14:42.526Z,22.80
2019-05-23T16:17:12.478Z,22.80
2019-05-23T16:19:42.679Z,22.90
2019-05-23T16:22:12.212Z,22.50
2019-05-23T16:24:40.982Z,23.00
2019-05-23T16:27:10.300Z,23.00
2019-05-23T16:29:41.293Z,23.10
2019-05-23T16:32:11.467Z,22.60
2019-05-23T16:34:40.873Z,22.50
2019-05-23T16:37:09.708Z,22.80
2019-05-23T16:39:47.603Z,22.70
2019-05-23T16:42:09.882Z,22.50
2019-05-23T16:44:38.815Z,22.60
2019-05-23T16:47:07.620Z,22.60
2019-05-23T16:49:36.365Z,22.50
2019-05-23T16:52:06.367Z,22.20
2019-05-23T16:54:39.939Z,22.20
2019-05-23T16:57:43.623Z,22.10
2019-05-23T17:00:42.782Z,22.30
2019-05-23T17:03:32.571Z,21.90
2019-05-23T17:06:35.660Z,22.10
2019-05-23T17:09:26.277Z,22.20
2019-05-23T17:12:14.614Z,22.20
2019-05-23T17:14:42.696Z,22.10
2019-05-23T17:17:49.411Z,22.30
2019-05-23T17:20:20.340Z,22.10
2019-05-23T17:23:02.515Z,22.10
2019-05-23T17:25:42.464Z,21.80
2019-05-23T17:28:18.989Z,21.90
2019-05-23T17:30:51.179Z,21.80
2019-05-23T17:33:19.928Z,21.80
2019-05-23T17:35:48.727Z,21.60
2019-05-23T17:38:17.640Z,21.60
2019-05-23T17:40:47.396Z,21.60
2019-05-23T17:43:16.259Z,21.40
2019-05-23T17:48:13.506Z,21.40
2019-05-23T17:50:42.608Z,21.40
2019-05-23T17:53:11.451Z,21.40
2019-05-23T17:55:40.456Z,21.40
2019-05-23T17:58:09.355Z,21.50
2019-05-23T18:00:39.898Z,21.40
2019-05-23T18:03:09.410Z,21.40
2019-05-23T18:05:38.743Z,21.30
2019-05-23T18:08:10.006Z,21.20
2019-05-23T18:10:45.137Z,21.30
2019-05-23T18:13:10.856Z,21.20
2019-05-23T18:15:42.334Z,21.20
2019-05-23T18:18:11.516Z,21.10
2019-05-23T18:20:41.267Z,21.10
2019-05-23T18:23:11.023Z,20.90
2019-05-23T18:25:41.226Z,20.70
2019-05-23T18:28:12.148Z,20.70
2019-05-23T18:30:47.988Z,20.50
2019-05-23T18:33:18.015Z,20.50
2019-05-23T18:35:47.641Z,20.40
2019-05-23T18:38:17.248Z,20.40
2019-05-23T18:41:01.735Z,20.20
2019-05-23T18:43:17.924Z,20.10
2019-05-23T18:45:49.633Z,20.10
2019-05-23T18:48:20.051Z,19.90
2019-05-23T18:50:50.032Z,19.80
2019-05-23T18:53:19.782Z,19.50
2019-05-23T18:55:48.693Z,19.20
2019-05-23T18:58:19.599Z,19.00
2019-05-23T19:01:21.701Z,18.80
2019-05-23T19:03:50.707Z,18.60
2019-05-23T19:06:19.760Z,18.40
2019-05-23T19:08:49.924Z,18.30
2019-05-23T19:11:21.246Z,18.10
2019-05-23T19:13:49.831Z,18.00
2019-05-23T19:16:19.113Z,17.90
2019-05-23T19:18:48.580Z,17.70
2019-05-23T19:21:18.271Z,17.60
2019-05-23T19:23:47.540Z,17.50
2019-05-23T19:26:16.803Z,17.40
2019-05-23T19:28:46.504Z,17.30
2019-05-23T19:31:15.976Z,17.10
2019-05-23T19:33:46.028Z,17.10
2019-05-23T19:36:15.957Z,17.00
2019-05-23T19:38:45.548Z,17.00
2019-05-23T19:41:15.295Z,16.80
2019-05-23T19:43:48.072Z,16.80
2019-05-23T19:46:15.934Z,16.70
2019-05-23T19:48:45.315Z,16.50
2019-05-23T19:51:17.249Z,16.60
2019-05-23T19:53:46.558Z,16.50
2019-05-23T19:56:15.649Z,16.50
2019-05-23T19:58:44.748Z,16.40
2019-05-23T20:01:14.459Z,16.30
2019-05-23T20:03:43.739Z,16.20
2019-05-23T20:06:13.334Z,16.20
2019-05-23T20:08:43.950Z,16.10
2019-05-23T20:11:13.259Z,16.00
2019-05-23T20:13:43.755Z,16.00
2019-05-23T20:16:14.081Z,16.00
2019-05-23T20:18:43.166Z,16.00
2019-05-23T20:21:12.349Z,16.00
2019-05-23T20:23:41.532Z,16.00
2019-05-23T20:26:10.569Z,15.90
2019-05-23T20:28:40.307Z,15.90
2019-05-23T20:31:11.004Z,15.80
2019-05-23T20:33:40.638Z,15.70
2019-05-23T20:36:13.028Z,15.40
2019-05-23T20:38:43.657Z,15.40
2019-05-23T20:41:12.775Z,15.50
2019-05-23T20:43:41.737Z,15.50
2019-05-23T20:46:10.842Z,15.50
2019-05-23T20:48:51.870Z,15.40
2019-05-23T20:51:21.499Z,15.40
2019-05-23T20:53:51.069Z,15.30
2019-05-23T20:56:24.679Z,15.20
2019-05-23T20:58:53.947Z,15.10
2019-05-23T21:01:30.785Z,15.00
2019-05-23T21:04:41.520Z,15.00
2019-05-23T21:07:11.174Z,15.00
2019-05-23T21:09:40.098Z,15.00
2019-05-23T21:12:09.005Z,14.90
2019-05-23T21:14:37.816Z,14.80
2019-05-23T21:17:06.618Z,14.80
2019-05-23T21:19:35.531Z,14.70
2019-05-23T21:22:04.771Z,14.70
2019-05-23T21:24:34.190Z,14.60
2019-05-23T21:27:02.976Z,14.60
2019-05-23T21:29:31.921Z,14.60
2019-05-23T21:32:00.748Z,14.50
2019-05-23T21:34:29.582Z,14.40
2019-05-23T21:36:58.433Z,14.30
2019-05-23T21:39:27.469Z,14.30
2019-05-23T21:41:56.213Z,14.20
2019-05-23T21:44:25.300Z,14.20
2019-05-23T21:46:54.856Z,14.20
2019-05-23T21:49:23.787Z,14.10
2019-05-23T21:51:52.934Z,14.00
2019-05-23T21:54:21.784Z,14.00
2019-05-23T21:56:50.527Z,14.00
2019-05-23T21:59:19.304Z,14.00
2019-05-23T22:04:23.865Z,14.00
2019-05-23T22:06:55.874Z,13.90
2019-05-23T22:09:25.627Z,14.00
2019-05-23T22:11:55.412Z,13.80
2019-05-23T22:14:24.330Z,13.90
2019-05-23T22:16:54.131Z,13.80
2019-05-23T22:19:23.388Z,13.70
2019-05-23T22:21:52.171Z,13.60
2019-05-23T22:24:21.779Z,13.60
2019-05-23T22:26:50.634Z,13.70
2019-05-23T22:29:19.932Z,13.60
2019-05-23T22:31:48.703Z,13.60
2019-05-23T22:34:28.892Z,13.50
2019-05-23T22:36:58.114Z,13.40
2019-05-23T22:39:27.824Z,13.40
2019-05-23T22:41:56.673Z,13.40
2019-05-23T22:44:25.820Z,13.40
2019-05-23T22:46:54.982Z,13.30
2019-05-23T22:49:23.730Z,13.30
2019-05-23T22:51:52.569Z,13.20
2019-05-23T22:54:21.332Z,13.10
2019-05-23T22:56:50.235Z,13.20
2019-05-23T22:59:18.998Z,13.10
2019-05-23T23:01:47.818Z,13.10
2019-05-23T23:04:16.660Z,13.10
2019-05-23T23:06:45.427Z,13.00
2019-05-23T23:09:14.273Z,13.00
2019-05-23T23:11:43.004Z,13.00
2019-05-23T23:14:12.047Z,13.00
2019-05-23T23:16:40.872Z,13.00
2019-05-23T23:19:10.441Z,13.00
2019-05-23T23:21:39.402Z,13.00
2019-05-23T23:24:08.345Z,13.00
2019-05-23T23:26:37.119Z,13.00
2019-05-23T23:29:06.994Z,13.00
2019-05-23T23:31:35.763Z,13.10
2019-05-23T23:34:04.633Z,13.10
2019-05-23T23:36:33.414Z,13.10
2019-05-23T23:39:02.315Z,13.10
2019-05-23T23:41:31.318Z,13.10
2019-05-23T23:44:00.410Z,13.10
2019-05-23T23:46:48.253Z,13.20
2019-05-23T23:49:35.010Z,13.20
2019-05-23T23:52:21.658Z,13.10
2019-05-23T23:55:08.127Z,13.10
2019-05-23T23:57:54.933Z,13.10
